sensor_id;sensor_type;location;lat;lon;timestamp;P1;durP1;ratioP1;P2;durP2;ratioP2
68995;SDS011;56056;48.990;12.146;2023-02-25T00:01:39;101.55;;;73.18;;
68995;SDS011;56056;48.990;12.146;2023-02-25T00:04:04;72.25;;;30.73;;
68995;SDS011;56056;48.990;12.146;2023-02-25T00:06:30;5.05;;;4.60;;
68995;SDS011;56056;48.990;12.146;2023-02-25T00:08:56;6.85;;;6.32;;
68995;SDS011;56056;48.990;12.146;2023-02-25T00:11:22;149.10;;;77.60;;
68995;SDS011;56056;48.990;12.146;2023-02-25T00:13:48;3.20;;;2.90;;
68995;SDS011;56056;48.990;12.146;2023-02-25T00:16:16;1.98;;;1.05;;
68995;SDS011;56056;48.990;12.146;2023-02-25T00:18:42;22.67;;;16.15;;
68995;SDS011;56056;48.990;12.146;2023-02-25T00:21:11;534.70;;;142.35;;
68995;SDS011;56056;48.990;12.146;2023-02-25T00:23:40;10.02;;;9.32;;
68995;SDS011;56056;48.990;12.146;2023-02-25T00:26:07;3.42;;;3.22;;
68995;SDS011;56056;48.990;12.146;2023-02-25T00:28:33;9.10;;;8.18;;
68995;SDS011;56056;48.990;12.146;2023-02-25T00:30:59;5.78;;;3.42;;
68995;SDS011;56056;48.990;12.146;2023-02-25T00:33:26;1033.55;;;215.10;;
68995;SDS011;56056;48.990;12.146;2023-02-25T00:35:51;375.20;;;206.85;;
68995;SDS011;56056;48.990;12.146;2023-02-25T00:38:17;1.10;;;1.10;;
68995;SDS011;56056;48.990;12.146;2023-02-25T00:40:43;18.45;;;16.20;;
68995;SDS011;56056;48.990;12.146;2023-02-25T00:43:08;51.63;;;33.80;;
68995;SDS011;56056;48.990;12.146;2023-02-25T00:45:34;3.83;;;2.45;;
68995;SDS011;56056;48.990;12.146;2023-02-25T00:48:03;5.18;;;4.85;;
68995;SDS011;56056;48.990;12.146;2023-02-25T00:50:30;47.83;;;42.78;;
68995;SDS011;56056;48.990;12.146;2023-02-25T00:52:55;561.45;;;245.32;;
68995;SDS011;56056;48.990;12.146;2023-02-25T00:55:21;15.35;;;13.80;;
68995;SDS011;56056;48.990;12.146;2023-02-25T00:57:47;15.93;;;7.90;;
68995;SDS011;56056;48.990;12.146;2023-02-25T01:00:13;67.45;;;22.17;;
68995;SDS011;56056;48.990;12.146;2023-02-25T01:02:42;2.30;;;2.13;;
68995;SDS011;56056;48.990;12.146;2023-02-25T01:05:09;2.28;;;2.17;;
68995;SDS011;56056;48.990;12.146;2023-02-25T01:07:36;5.18;;;3.35;;
68995;SDS011;56056;48.990;12.146;2023-02-25T01:10:02;9.73;;;7.15;;
68995;SDS011;56056;48.990;12.146;2023-02-25T01:12:28;14.90;;;13.02;;
68995;SDS011;56056;48.990;12.146;2023-02-25T01:14:54;2.45;;;2.25;;
68995;SDS011;56056;48.990;12.146;2023-02-25T01:17:20;12.27;;;8.70;;
68995;SDS011;56056;48.990;12.146;2023-02-25T01:19:46;2.47;;;2.33;;
68995;SDS011;56056;48.990;12.146;2023-02-25T01:22:12;3.65;;;3.30;;
68995;SDS011;56056;48.990;12.146;2023-02-25T01:24:39;10.85;;;9.15;;
68995;SDS011;56056;48.990;12.146;2023-02-25T01:27:05;3.88;;;3.67;;
68995;SDS011;56056;48.990;12.146;2023-02-25T01:29:31;4.22;;;4.03;;
68995;SDS011;56056;48.990;12.146;2023-02-25T01:31:59;644.08;;;197.13;;
68995;SDS011;56056;48.990;12.146;2023-02-25T01:34:26;302.15;;;121.05;;
68995;SDS011;56056;48.990;12.146;2023-02-25T01:36:52;469.63;;;168.82;;
68995;SDS011;56056;48.990;12.146;2023-02-25T01:39:19;14.70;;;13.43;;
68995;SDS011;56056;48.990;12.146;2023-02-25T01:41:47;1101.40;;;263.58;;
68995;SDS011;56056;48.990;12.146;2023-02-25T01:44:15;12.07;;;10.93;;
68995;SDS011;56056;48.990;12.146;2023-02-25T01:46:43;490.30;;;195.93;;
68995;SDS011;56056;48.990;12.146;2023-02-25T01:49:10;3.25;;;3.05;;
68995;SDS011;56056;48.990;12.146;2023-02-25T01:51:38;1.98;;;1.88;;
68995;SDS011;56056;48.990;12.146;2023-02-25T01:54:04;9.90;;;9.18;;
68995;SDS011;56056;48.990;12.146;2023-02-25T01:56:30;205.27;;;87.20;;
68995;SDS011;56056;48.990;12.146;2023-02-25T01:58:57;37.42;;;12.60;;
68995;SDS011;56056;48.990;12.146;2023-02-25T02:01:24;7.65;;;7.13;;
68995;SDS011;56056;48.990;12.146;2023-02-25T02:03:51;5.90;;;4.93;;
68995;SDS011;56056;48.990;12.146;2023-02-25T02:06:17;4.68;;;3.47;;
68995;SDS011;56056;48.990;12.146;2023-02-25T02:08:45;0.88;;;0.85;;
68995;SDS011;56056;48.990;12.146;2023-02-25T02:11:12;29.92;;;22.42;;
68995;SDS011;56056;48.990;12.146;2023-02-25T02:13:38;5.20;;;3.83;;
68995;SDS011;56056;48.990;12.146;2023-02-25T02:16:16;1087.78;;;285.90;;
68995;SDS011;56056;48.990;12.146;2023-02-25T02:18:47;30.92;;;27.67;;
68995;SDS011;56056;48.990;12.146;2023-02-25T02:21:19;22.23;;;18.20;;
68995;SDS011;56056;48.990;12.146;2023-02-25T02:24:20;30.90;;;19.73;;
68995;SDS011;56056;48.990;12.146;2023-02-25T02:26:59;1.20;;;1.20;;
68995;SDS011;56056;48.990;12.146;2023-02-25T02:32:14;6.47;;;3.78;;
68995;SDS011;56056;48.990;12.146;2023-02-25T02:34:45;3.60;;;3.30;;
68995;SDS011;56056;48.990;12.146;2023-02-25T02:37:22;2.85;;;2.65;;
68995;SDS011;56056;48.990;12.146;2023-02-25T02:39:55;3.15;;;2.95;;
68995;SDS011;56056;48.990;12.146;2023-02-25T02:42:30;31.63;;;23.27;;
68995;SDS011;56056;48.990;12.146;2023-02-25T02:45:03;449.73;;;188.25;;
68995;SDS011;56056;48.990;12.146;2023-02-25T02:47:35;10.82;;;9.73;;
68995;SDS011;56056;48.990;12.146;2023-02-25T02:50:03;12.07;;;9.93;;
68995;SDS011;56056;48.990;12.146;2023-02-25T02:52:31;2.28;;;2.08;;
68995;SDS011;56056;48.990;12.146;2023-02-25T02:55:00;3.92;;;3.47;;
68995;SDS011;56056;48.990;12.146;2023-02-25T02:57:27;189.27;;;123.57;;
68995;SDS011;56056;48.990;12.146;2023-02-25T02:59:55;5.00;;;4.63;;
68995;SDS011;56056;48.990;12.146;2023-02-25T03:02:25;56.15;;;21.77;;
68995;SDS011;56056;48.990;12.146;2023-02-25T03:04:54;2.70;;;2.50;;
68995;SDS011;56056;48.990;12.146;2023-02-25T03:07:23;4.88;;;4.53;;
68995;SDS011;56056;48.990;12.146;2023-02-25T03:09:49;19.15;;;3.13;;
68995;SDS011;56056;48.990;12.146;2023-02-25T03:12:17;6.72;;;6.15;;
68995;SDS011;56056;48.990;12.146;2023-02-25T03:14:43;1.17;;;1.08;;
68995;SDS011;56056;48.990;12.146;2023-02-25T03:17:09;3.15;;;2.90;;
68995;SDS011;56056;48.990;12.146;2023-02-25T03:19:38;632.40;;;293.80;;
68995;SDS011;56056;48.990;12.146;2023-02-25T03:22:06;150.23;;;76.10;;
68995;SDS011;56056;48.990;12.146;2023-02-25T03:24:34;5.68;;;4.53;;
68995;SDS011;56056;48.990;12.146;2023-02-25T03:27:14;1.42;;;0.77;;
68995;SDS011;56056;48.990;12.146;2023-02-25T03:29:45;2.83;;;2.72;;
68995;SDS011;56056;48.990;12.146;2023-02-25T03:32:11;24.67;;;19.35;;
68995;SDS011;56056;48.990;12.146;2023-02-25T03:34:40;1.42;;;1.40;;
68995;SDS011;56056;48.990;12.146;2023-02-25T03:37:11;5.05;;;4.57;;
68995;SDS011;56056;48.990;12.146;2023-02-25T03:39:39;47.63;;;24.42;;
68995;SDS011;56056;48.990;12.146;2023-02-25T03:42:08;13.32;;;12.18;;
68995;SDS011;56056;48.990;12.146;2023-02-25T03:44:38;801.88;;;543.72;;
68995;SDS011;56056;48.990;12.146;2023-02-25T03:47:07;8.70;;;7.22;;
68995;SDS011;56056;48.990;12.146;2023-02-25T03:49:34;8.60;;;7.13;;
68995;SDS011;56056;48.990;12.146;2023-02-25T03:52:02;4.28;;;3.95;;
68995;SDS011;56056;48.990;12.146;2023-02-25T03:54:31;4.53;;;4.13;;
68995;SDS011;56056;48.990;12.146;2023-02-25T03:56:57;3.22;;;2.92;;
68995;SDS011;56056;48.990;12.146;2023-02-25T03:59:22;13.32;;;11.82;;
68995;SDS011;56056;48.990;12.146;2023-02-25T04:01:50;4.35;;;4.15;;
68995;SDS011;56056;48.990;12.146;2023-02-25T04:04:16;5.18;;;4.80;;
68995;SDS011;56056;48.990;12.146;2023-02-25T04:06:42;11.65;;;10.75;;
68995;SDS011;56056;48.990;12.146;2023-02-25T04:09:08;120.00;;;98.85;;
68995;SDS011;56056;48.990;12.146;2023-02-25T04:11:35;3.88;;;3.25;;
68995;SDS011;56056;48.990;12.146;2023-02-25T04:14:01;9.85;;;6.93;;
68995;SDS011;56056;48.990;12.146;2023-02-25T04:16:26;3.80;;;3.45;;
68995;SDS011;56056;48.990;12.146;2023-02-25T04:18:52;5.43;;;4.90;;
68995;SDS011;56056;48.990;12.146;2023-02-25T04:21:24;2.97;;;2.78;;
68995;SDS011;56056;48.990;12.146;2023-02-25T04:23:51;66.85;;;55.50;;
68995;SDS011;56056;48.990;12.146;2023-02-25T04:26:17;466.73;;;234.63;;
68995;SDS011;56056;48.990;12.146;2023-02-25T04:28:44;14.85;;;13.65;;
68995;SDS011;56056;48.990;12.146;2023-02-25T04:31:10;7.00;;;6.47;;
68995;SDS011;56056;48.990;12.146;2023-02-25T04:33:35;1.15;;;1.05;;
68995;SDS011;56056;48.990;12.146;2023-02-25T04:36:01;1.88;;;1.77;;
68995;SDS011;56056;48.990;12.146;2023-02-25T04:38:27;2.92;;;2.40;;
68995;SDS011;56056;48.990;12.146;2023-02-25T04:40:52;4.38;;;4.07;;
68995;SDS011;56056;48.990;12.146;2023-02-25T04:43:18;1939.97;;;532.33;;
68995;SDS011;56056;48.990;12.146;2023-02-25T04:45:45;16.88;;;8.32;;
68995;SDS011;56056;48.990;12.146;2023-02-25T04:48:11;2.45;;;2.25;;
68995;SDS011;56056;48.990;12.146;2023-02-25T04:50:36;2.25;;;2.15;;
68995;SDS011;56056;48.990;12.146;2023-02-25T04:53:02;0.60;;;0.60;;
68995;SDS011;56056;48.990;12.146;2023-02-25T04:55:28;1.00;;;1.00;;
68995;SDS011;56056;48.990;12.146;2023-02-25T04:57:54;7.10;;;3.75;;
68995;SDS011;56056;48.990;12.146;2023-02-25T05:00:20;3.22;;;2.92;;
68995;SDS011;56056;48.990;12.146;2023-02-25T05:02:49;6.00;;;5.53;;
68995;SDS011;56056;48.990;12.146;2023-02-25T05:05:15;9.82;;;7.25;;
68995;SDS011;56056;48.990;12.146;2023-02-25T05:07:41;13.85;;;8.93;;
68995;SDS011;56056;48.990;12.146;2023-02-25T05:10:08;1.65;;;1.60;;
68995;SDS011;56056;48.990;12.146;2023-02-25T05:12:35;13.30;;;11.57;;
68995;SDS011;56056;48.990;12.146;2023-02-25T05:15:01;403.00;;;188.75;;
68995;SDS011;56056;48.990;12.146;2023-02-25T05:17:29;7.85;;;7.22;;
68995;SDS011;56056;48.990;12.146;2023-02-25T05:19:56;4.57;;;2.90;;
68995;SDS011;56056;48.990;12.146;2023-02-25T05:22:22;580.47;;;271.98;;
68995;SDS011;56056;48.990;12.146;2023-02-25T05:24:48;5.18;;;4.65;;
68995;SDS011;56056;48.990;12.146;2023-02-25T05:27:14;494.27;;;202.02;;
68995;SDS011;56056;48.990;12.146;2023-02-25T05:29:39;63.80;;;39.95;;
68995;SDS011;56056;48.990;12.146;2023-02-25T05:32:05;622.80;;;171.32;;
68995;SDS011;56056;48.990;12.146;2023-02-25T05:34:31;0.88;;;0.88;;
68995;SDS011;56056;48.990;12.146;2023-02-25T05:36:58;22.52;;;12.95;;
68995;SDS011;56056;48.990;12.146;2023-02-25T05:39:24;21.45;;;15.88;;
68995;SDS011;56056;48.990;12.146;2023-02-25T05:41:49;5.00;;;3.03;;
68995;SDS011;56056;48.990;12.146;2023-02-25T05:44:15;734.72;;;264.67;;
68995;SDS011;56056;48.990;12.146;2023-02-25T05:46:41;8.80;;;8.05;;
68995;SDS011;56056;48.990;12.146;2023-02-25T05:49:07;4.95;;;4.55;;
68995;SDS011;56056;48.990;12.146;2023-02-25T05:51:33;29.45;;;26.73;;
68995;SDS011;56056;48.990;12.146;2023-02-25T05:54:00;82.50;;;29.45;;
68995;SDS011;56056;48.990;12.146;2023-02-25T05:56:26;286.60;;;170.85;;
68995;SDS011;56056;48.990;12.146;2023-02-25T05:58:52;631.50;;;210.23;;
68995;SDS011;56056;48.990;12.146;2023-02-25T06:01:18;4.18;;;3.78;;
68995;SDS011;56056;48.990;12.146;2023-02-25T06:03:46;964.15;;;290.15;;
68995;SDS011;56056;48.990;12.146;2023-02-25T06:06:13;1.20;;;1.20;;
68995;SDS011;56056;48.990;12.146;2023-02-25T06:08:40;1160.38;;;339.20;;
68995;SDS011;56056;48.990;12.146;2023-02-25T06:11:10;7.47;;;6.80;;
68995;SDS011;56056;48.990;12.146;2023-02-25T06:13:38;4.15;;;3.85;;
68995;SDS011;56056;48.990;12.146;2023-02-25T06:16:04;1016.60;;;238.77;;
68995;SDS011;56056;48.990;12.146;2023-02-25T06:18:30;1.60;;;1.38;;
68995;SDS011;56056;48.990;12.146;2023-02-25T06:21:01;8.88;;;7.60;;
68995;SDS011;56056;48.990;12.146;2023-02-25T06:23:29;0.80;;;0.80;;
68995;SDS011;56056;48.990;12.146;2023-02-25T06:25:56;0.75;;;0.75;;
68995;SDS011;56056;48.990;12.146;2023-02-25T06:28:23;272.25;;;127.40;;
68995;SDS011;56056;48.990;12.146;2023-02-25T06:30:49;5.00;;;3.80;;
68995;SDS011;56056;48.990;12.146;2023-02-25T06:33:14;10.38;;;9.57;;
68995;SDS011;56056;48.990;12.146;2023-02-25T06:35:40;1.13;;;1.02;;
68995;SDS011;56056;48.990;12.146;2023-02-25T06:38:05;99.47;;;82.80;;
68995;SDS011;56056;48.990;12.146;2023-02-25T06:40:31;4.15;;;3.90;;
68995;SDS011;56056;48.990;12.146;2023-02-25T06:42:57;4.00;;;3.70;;
68995;SDS011;56056;48.990;12.146;2023-02-25T06:45:24;2.10;;;2.00;;
68995;SDS011;56056;48.990;12.146;2023-02-25T06:47:50;3.78;;;3.53;;
68995;SDS011;56056;48.990;12.146;2023-02-25T06:50:15;5.53;;;5.20;;
68995;SDS011;56056;48.990;12.146;2023-02-25T06:52:41;9.30;;;8.35;;
68995;SDS011;56056;48.990;12.146;2023-02-25T06:55:08;1.17;;;1.08;;
68995;SDS011;56056;48.990;12.146;2023-02-25T06:57:34;4.90;;;2.58;;
68995;SDS011;56056;48.990;12.146;2023-02-25T07:00:00;9.55;;;6.93;;
68995;SDS011;56056;48.990;12.146;2023-02-25T07:02:27;6.78;;;5.50;;
68995;SDS011;56056;48.990;12.146;2023-02-25T07:04:53;327.42;;;124.22;;
68995;SDS011;56056;48.990;12.146;2023-02-25T07:07:19;6.13;;;4.72;;
68995;SDS011;56056;48.990;12.146;2023-02-25T07:09:44;141.48;;;70.97;;
68995;SDS011;56056;48.990;12.146;2023-02-25T07:12:11;447.90;;;153.13;;
68995;SDS011;56056;48.990;12.146;2023-02-25T07:14:36;31.38;;;10.38;;
68995;SDS011;56056;48.990;12.146;2023-02-25T07:17:02;819.50;;;217.18;;
68995;SDS011;56056;48.990;12.146;2023-02-25T07:19:29;653.30;;;106.72;;
68995;SDS011;56056;48.990;12.146;2023-02-25T07:21:55;160.80;;;73.93;;
68995;SDS011;56056;48.990;12.146;2023-02-25T07:24:20;4.30;;;4.00;;
68995;SDS011;56056;48.990;12.146;2023-02-25T07:26:47;5.20;;;4.78;;
68995;SDS011;56056;48.990;12.146;2023-02-25T07:29:12;13.98;;;7.07;;
68995;SDS011;56056;48.990;12.146;2023-02-25T07:31:38;31.65;;;26.35;;
68995;SDS011;56056;48.990;12.146;2023-02-25T07:34:04;7.95;;;1.30;;
68995;SDS011;56056;48.990;12.146;2023-02-25T07:36:31;1297.63;;;308.00;;
68995;SDS011;56056;48.990;12.146;2023-02-25T07:38:59;408.40;;;102.80;;
68995;SDS011;56056;48.990;12.146;2023-02-25T07:41:26;134.25;;;47.42;;
68995;SDS011;56056;48.990;12.146;2023-02-25T07:43:52;17.25;;;15.80;;
68995;SDS011;56056;48.990;12.146;2023-02-25T07:46:18;107.82;;;66.82;;
68995;SDS011;56056;48.990;12.146;2023-02-25T07:48:44;701.55;;;240.55;;
68995;SDS011;56056;48.990;12.146;2023-02-25T07:51:10;13.20;;;10.05;;
68995;SDS011;56056;48.990;12.146;2023-02-25T07:53:38;245.13;;;55.42;;
68995;SDS011;56056;48.990;12.146;2023-02-25T07:56:04;1.33;;;1.33;;
68995;SDS011;56056;48.990;12.146;2023-02-25T07:58:31;5.22;;;3.88;;
68995;SDS011;56056;48.990;12.146;2023-02-25T08:00:57;180.63;;;87.63;;
68995;SDS011;56056;48.990;12.146;2023-02-25T08:03:23;179.02;;;66.75;;
68995;SDS011;56056;48.990;12.146;2023-02-25T08:05:49;338.02;;;125.00;;
68995;SDS011;56056;48.990;12.146;2023-02-25T08:08:16;898.58;;;293.45;;
68995;SDS011;56056;48.990;12.146;2023-02-25T08:10:43;2.47;;;2.28;;
68995;SDS011;56056;48.990;12.146;2023-02-25T08:13:08;301.50;;;110.18;;
68995;SDS011;56056;48.990;12.146;2023-02-25T08:15:34;230.15;;;82.20;;
68995;SDS011;56056;48.990;12.146;2023-02-25T08:17:59;414.63;;;110.32;;
68995;SDS011;56056;48.990;12.146;2023-02-25T08:20:25;29.98;;;17.27;;
68995;SDS011;56056;48.990;12.146;2023-02-25T08:22:51;6.85;;;5.32;;
68995;SDS011;56056;48.990;12.146;2023-02-25T08:25:16;495.88;;;185.50;;
68995;SDS011;56056;48.990;12.146;2023-02-25T08:27:43;2.08;;;1.98;;
68995;SDS011;56056;48.990;12.146;2023-02-25T08:30:09;69.22;;;13.65;;
68995;SDS011;56056;48.990;12.146;2023-02-25T08:32:36;627.20;;;158.05;;
68995;SDS011;56056;48.990;12.146;2023-02-25T08:35:01;0.70;;;0.70;;
68995;SDS011;56056;48.990;12.146;2023-02-25T08:37:28;1337.95;;;215.57;;
68995;SDS011;56056;48.990;12.146;2023-02-25T08:39:54;488.98;;;106.38;;
68995;SDS011;56056;48.990;12.146;2023-02-25T08:42:20;230.85;;;87.25;;
68995;SDS011;56056;48.990;12.146;2023-02-25T08:44:47;582.95;;;281.15;;
68995;SDS011;56056;48.990;12.146;2023-02-25T08:47:13;0.95;;;0.88;;
68995;SDS011;56056;48.990;12.146;2023-02-25T08:49:40;1023.30;;;211.77;;
68995;SDS011;56056;48.990;12.146;2023-02-25T08:52:06;826.95;;;187.10;;
68995;SDS011;56056;48.990;12.146;2023-02-25T08:54:33;6.70;;;6.20;;
68995;SDS011;56056;48.990;12.146;2023-02-25T08:57:00;935.90;;;299.48;;
68995;SDS011;56056;48.990;12.146;2023-02-25T08:59:26;8.00;;;7.30;;
68995;SDS011;56056;48.990;12.146;2023-02-25T09:01:53;46.10;;;18.75;;
68995;SDS011;56056;48.990;12.146;2023-02-25T09:04:20;645.83;;;159.23;;
68995;SDS011;56056;48.990;12.146;2023-02-25T09:06:49;1133.47;;;319.83;;
68995;SDS011;56056;48.990;12.146;2023-02-25T09:09:17;296.95;;;87.18;;
68995;SDS011;56056;48.990;12.146;2023-02-25T09:11:44;3.75;;;3.33;;
68995;SDS011;56056;48.990;12.146;2023-02-25T09:14:11;737.30;;;227.23;;
68995;SDS011;56056;48.990;12.146;2023-02-25T09:16:37;1570.18;;;645.35;;
68995;SDS011;56056;48.990;12.146;2023-02-25T09:19:04;6.40;;;5.85;;
68995;SDS011;56056;48.990;12.146;2023-02-25T09:21:30;1164.93;;;287.10;;
68995;SDS011;56056;48.990;12.146;2023-02-25T09:23:56;222.55;;;69.53;;
68995;SDS011;56056;48.990;12.146;2023-02-25T09:26:22;19.88;;;15.93;;
68995;SDS011;56056;48.990;12.146;2023-02-25T09:28:48;1271.03;;;384.80;;
68995;SDS011;56056;48.990;12.146;2023-02-25T09:31:14;38.17;;;24.92;;
68995;SDS011;56056;48.990;12.146;2023-02-25T09:33:40;17.63;;;11.00;;
68995;SDS011;56056;48.990;12.146;2023-02-25T09:36:11;53.25;;;15.75;;
68995;SDS011;56056;48.990;12.146;2023-02-25T09:38:38;329.35;;;116.15;;
68995;SDS011;56056;48.990;12.146;2023-02-25T09:41:09;46.05;;;23.10;;
68995;SDS011;56056;48.990;12.146;2023-02-25T09:43:42;1692.50;;;437.77;;
68995;SDS011;56056;48.990;12.146;2023-02-25T09:46:09;686.17;;;127.28;;
68995;SDS011;56056;48.990;12.146;2023-02-25T09:48:38;814.70;;;151.60;;
68995;SDS011;56056;48.990;12.146;2023-02-25T09:51:06;2.80;;;1.20;;
68995;SDS011;56056;48.990;12.146;2023-02-25T09:53:43;1999.90;;;999.90;;
68995;SDS011;56056;48.990;12.146;2023-02-25T09:56:11;83.18;;;54.17;;
68995;SDS011;56056;48.990;12.146;2023-02-25T09:58:40;1820.35;;;430.10;;
68995;SDS011;56056;48.990;12.146;2023-02-25T10:01:11;682.92;;;280.83;;
68995;SDS011;56056;48.990;12.146;2023-02-25T10:03:44;1979.72;;;551.13;;
68995;SDS011;56056;48.990;12.146;2023-02-25T10:06:15;1361.07;;;525.47;;
68995;SDS011;56056;48.990;12.146;2023-02-25T10:08:46;1979.65;;;511.00;;
68995;SDS011;56056;48.990;12.146;2023-02-25T10:11:17;1188.38;;;466.67;;
68995;SDS011;56056;48.990;12.146;2023-02-25T10:13:53;1879.63;;;782.42;;
68995;SDS011;56056;48.990;12.146;2023-02-25T10:16:27;1999.90;;;808.40;;
68995;SDS011;56056;48.990;12.146;2023-02-25T10:19:02;1999.90;;;981.60;;
68995;SDS011;56056;48.990;12.146;2023-02-25T10:21:36;1999.90;;;779.08;;
68995;SDS011;56056;48.990;12.146;2023-02-25T10:24:12;1999.90;;;673.88;;
68995;SDS011;56056;48.990;12.146;2023-02-25T10:26:45;1999.90;;;772.55;;
68995;SDS011;56056;48.990;12.146;2023-02-25T10:29:15;1999.90;;;706.83;;
68995;SDS011;56056;48.990;12.146;2023-02-25T10:31:45;1948.97;;;854.90;;
68995;SDS011;56056;48.990;12.146;2023-02-25T10:34:17;1659.85;;;468.23;;
68995;SDS011;56056;48.990;12.146;2023-02-25T10:36:46;1816.70;;;661.75;;
68995;SDS011;56056;48.990;12.146;2023-02-25T10:39:16;1993.00;;;743.38;;
68995;SDS011;56056;48.990;12.146;2023-02-25T10:41:42;1789.63;;;540.80;;
68995;SDS011;56056;48.990;12.146;2023-02-25T10:44:08;1999.90;;;656.20;;
68995;SDS011;56056;48.990;12.146;2023-02-25T10:46:35;1996.35;;;461.83;;
68995;SDS011;56056;48.990;12.146;2023-02-25T10:49:12;1999.90;;;727.05;;
68995;SDS011;56056;48.990;12.146;2023-02-25T10:51:41;1999.90;;;812.80;;
68995;SDS011;56056;48.990;12.146;2023-02-25T10:54:23;1829.28;;;561.10;;
68995;SDS011;56056;48.990;12.146;2023-02-25T10:56:49;1509.60;;;509.73;;
68995;SDS011;56056;48.990;12.146;2023-02-25T10:59:25;872.88;;;334.20;;
68995;SDS011;56056;48.990;12.146;2023-02-25T11:01:52;980.88;;;366.67;;
68995;SDS011;56056;48.990;12.146;2023-02-25T11:04:19;1809.93;;;680.85;;
68995;SDS011;56056;48.990;12.146;2023-02-25T11:06:48;1999.90;;;724.40;;
68995;SDS011;56056;48.990;12.146;2023-02-25T11:09:29;1999.90;;;975.20;;
68995;SDS011;56056;48.990;12.146;2023-02-25T11:12:00;1999.90;;;999.90;;
68995;SDS011;56056;48.990;12.146;2023-02-25T11:14:35;1999.90;;;779.17;;
68995;SDS011;56056;48.990;12.146;2023-02-25T11:17:02;1999.90;;;812.35;;
68995;SDS011;56056;48.990;12.146;2023-02-25T11:19:29;1999.90;;;743.42;;
68995;SDS011;56056;48.990;12.146;2023-02-25T11:21:57;1999.90;;;586.45;;
68995;SDS011;56056;48.990;12.146;2023-02-25T11:24:27;1999.90;;;840.58;;
68995;SDS011;56056;48.990;12.146;2023-02-25T11:26:56;1999.90;;;612.30;;
68995;SDS011;56056;48.990;12.146;2023-02-25T11:29:22;1999.90;;;701.50;;
68995;SDS011;56056;48.990;12.146;2023-02-25T11:31:52;1999.90;;;759.92;;
68995;SDS011;56056;48.990;12.146;2023-02-25T11:34:20;1999.90;;;448.00;;
68995;SDS011;56056;48.990;12.146;2023-02-25T11:36:46;1999.90;;;804.90;;
68995;SDS011;56056;48.990;12.146;2023-02-25T11:39:13;1999.90;;;950.92;;
68995;SDS011;56056;48.990;12.146;2023-02-25T11:41:43;1999.90;;;995.33;;
68995;SDS011;56056;48.990;12.146;2023-02-25T11:44:11;1999.90;;;889.70;;
68995;SDS011;56056;48.990;12.146;2023-02-25T11:46:44;1834.65;;;649.42;;
68995;SDS011;56056;48.990;12.146;2023-02-25T11:49:18;1877.55;;;645.13;;
68995;SDS011;56056;48.990;12.146;2023-02-25T11:51:48;1882.07;;;628.03;;
68995;SDS011;56056;48.990;12.146;2023-02-25T11:54:21;1350.88;;;519.92;;
68995;SDS011;56056;48.990;12.146;2023-02-25T11:56:52;1592.68;;;571.05;;
68995;SDS011;56056;48.990;12.146;2023-02-25T12:05:14;1807.53;;;404.45;;
68995;SDS011;56056;48.990;12.146;2023-02-25T12:08:06;1594.88;;;499.52;;
68995;SDS011;56056;48.990;12.146;2023-02-25T12:10:54;1999.90;;;845.38;;
68995;SDS011;56056;48.990;12.146;2023-02-25T12:13:46;1999.90;;;855.92;;
68995;SDS011;56056;48.990;12.146;2023-02-25T12:22:41;1999.90;;;620.90;;
68995;SDS011;56056;48.990;12.146;2023-02-25T12:25:33;1999.90;;;637.90;;
68995;SDS011;56056;48.990;12.146;2023-02-25T12:28:08;1999.90;;;799.35;;
68995;SDS011;56056;48.990;12.146;2023-02-25T12:30:46;1999.90;;;703.28;;
68995;SDS011;56056;48.990;12.146;2023-02-25T12:33:30;1999.90;;;645.83;;
68995;SDS011;56056;48.990;12.146;2023-02-25T12:36:09;1999.90;;;785.78;;
68995;SDS011;56056;48.990;12.146;2023-02-25T12:41:37;1999.90;;;538.50;;
68995;SDS011;56056;48.990;12.146;2023-02-25T12:44:08;1999.90;;;664.90;;
68995;SDS011;56056;48.990;12.146;2023-02-25T12:46:53;1999.90;;;600.30;;
68995;SDS011;56056;48.990;12.146;2023-02-25T12:49:36;1999.90;;;684.05;;
68995;SDS011;56056;48.990;12.146;2023-02-25T12:52:17;1999.90;;;669.92;;
68995;SDS011;56056;48.990;12.146;2023-02-25T12:57:45;1999.90;;;815.63;;
68995;SDS011;56056;48.990;12.146;2023-02-25T13:00:18;1999.90;;;734.20;;
68995;SDS011;56056;48.990;12.146;2023-02-25T13:03:16;1999.90;;;788.33;;
68995;SDS011;56056;48.990;12.146;2023-02-25T13:06:04;1999.90;;;931.30;;
68995;SDS011;56056;48.990;12.146;2023-02-25T13:08:47;1999.90;;;999.90;;
68995;SDS011;56056;48.990;12.146;2023-02-25T13:11:20;1999.90;;;697.10;;
68995;SDS011;56056;48.990;12.146;2023-02-25T13:13:54;1999.90;;;576.13;;
68995;SDS011;56056;48.990;12.146;2023-02-25T13:16:38;1999.90;;;738.78;;
68995;SDS011;56056;48.990;12.146;2023-02-25T13:19:22;1950.25;;;714.65;;
68995;SDS011;56056;48.990;12.146;2023-02-25T13:22:15;1569.20;;;590.80;;
68995;SDS011;56056;48.990;12.146;2023-02-25T13:24:48;1118.82;;;464.58;;
68995;SDS011;56056;48.990;12.146;2023-02-25T13:27:33;1824.80;;;704.97;;
68995;SDS011;56056;48.990;12.146;2023-02-25T13:30:12;1999.90;;;690.28;;
68995;SDS011;56056;48.990;12.146;2023-02-25T13:32:45;1999.90;;;947.97;;
68995;SDS011;56056;48.990;12.146;2023-02-25T13:35:22;1999.90;;;994.10;;
68995;SDS011;56056;48.990;12.146;2023-02-25T13:37:56;1999.90;;;861.47;;
68995;SDS011;56056;48.990;12.146;2023-02-25T13:40:36;1589.38;;;635.65;;
68995;SDS011;56056;48.990;12.146;2023-02-25T13:43:17;805.95;;;257.65;;
68995;SDS011;56056;48.990;12.146;2023-02-25T13:45:55;1999.90;;;999.90;;
68995;SDS011;56056;48.990;12.146;2023-02-25T13:48:38;1693.28;;;579.95;;
68995;SDS011;56056;48.990;12.146;2023-02-25T13:51:22;1999.90;;;639.88;;
68995;SDS011;56056;48.990;12.146;2023-02-25T13:54:06;1999.90;;;616.50;;
68995;SDS011;56056;48.990;12.146;2023-02-25T13:56:53;344.73;;;81.75;;
68995;SDS011;56056;48.990;12.146;2023-02-25T13:59:24;1108.35;;;303.15;;
68995;SDS011;56056;48.990;12.146;2023-02-25T14:02:01;382.13;;;124.60;;
68995;SDS011;56056;48.990;12.146;2023-02-25T14:04:42;5.50;;;4.53;;
68995;SDS011;56056;48.990;12.146;2023-02-25T14:07:37;2.80;;;2.40;;
68995;SDS011;56056;48.990;12.146;2023-02-25T14:10:17;8.18;;;7.43;;
68995;SDS011;56056;48.990;12.146;2023-02-25T14:12:53;14.00;;;12.70;;
68995;SDS011;56056;48.990;12.146;2023-02-25T14:15:42;11.00;;;9.05;;
68995;SDS011;56056;48.990;12.146;2023-02-25T14:18:22;1564.43;;;511.30;;
68995;SDS011;56056;48.990;12.146;2023-02-25T14:21:00;1861.07;;;558.17;;
68995;SDS011;56056;48.990;12.146;2023-02-25T14:23:39;1999.90;;;674.63;;
68995;SDS011;56056;48.990;12.146;2023-02-25T14:26:17;1946.55;;;636.83;;
68995;SDS011;56056;48.990;12.146;2023-02-25T14:28:49;1999.90;;;792.88;;
68995;SDS011;56056;48.990;12.146;2023-02-25T14:31:23;1999.90;;;998.08;;
68995;SDS011;56056;48.990;12.146;2023-02-25T14:34:15;1999.90;;;712.65;;
68995;SDS011;56056;48.990;12.146;2023-02-25T14:36:55;373.20;;;175.60;;
68995;SDS011;56056;48.990;12.146;2023-02-25T14:39:47;89.43;;;45.92;;